Time;durP1;ratioP1;P1;durP2;ratioP2;P2;SDS_P1;SDS_P2;PMS_P1;PMS_P2;Temp;Humidity;BMP_temperature;BMP_pressure;BME280_temperature;BME280_humidity;BME280_pressure;Samples;Min_cycle;Max_cycle;Signal;HPM_P1;HPM_P2
2022/01/07 00:01:06;;;;;;;30.23;8.02;;;;;;;-0.04;75.88;101383.13;5028658;28;20074;-65
2022/01/07 00:03:33;;;;;;;17.48;7.78;;;;;;;-0.21;77.49;101377.06;5029280;28;20045;-65
2022/01/07 00:06:00;;;;;;;18.75;7.80;;;;;;;-0.03;77.28;101386.56;5031881;28;20060;-65
2022/01/07 00:08:27;;;;;;;25.58;7.93;;;;;;;-0.17;77.86;101383.09;5030878;28;20514;-65
2022/01/07 00:10:54;;;;;;;26.60;8.40;;;;;;;-0.13;78.11;101383.13;5031405;28;20069;-65
2022/01/07 00:13:20;;;;;;;18.65;6.97;;;;;;;-0.18;79.00;101382.22;5031633;28;20045;-65
2022/01/07 00:15:46;;;;;;;19.48;8.43;;;;;;;0.02;79.18;101377.13;5031452;28;20548;-65
2022/01/07 00:18:15;;;;;;;24.92;8.05;;;;;;;-0.04;79.21;101380.53;5031664;28;20075;-65
2022/01/07 00:20:41;;;;;;;27.02;9.25;;;;;;;0.11;79.50;101378.88;5031988;28;20049;-65
2022/01/07 00:23:08;;;;;;;23.38;9.05;;;;;;;0.22;79.21;101379.72;5030662;28;20042;-65
2022/01/07 00:25:34;;;;;;;23.23;7.95;;;;;;;0.44;77.09;101369.38;5031172;28;20464;-65
2022/01/07 00:28:01;;;;;;;24.08;9.20;;;;;;;0.49;76.50;101359.06;5031539;28;20076;-65
2022/01/07 00:30:27;;;;;;;20.73;7.28;;;;;;;0.46;76.51;101361.66;5028426;28;20464;-65
2022/01/07 00:32:54;;;;;;;17.98;7.25;;;;;;;0.32;77.13;101363.38;5031240;28;20050;-65
2022/01/07 00:35:22;;;;;;;22.80;7.43;;;;;;;0.43;77.44;101361.66;5031334;28;20092;-65
2022/01/07 00:37:50;;;;;;;23.58;7.60;;;;;;;0.40;78.03;101359.09;5030349;28;20087;-65
2022/01/07 00:40:18;;;;;;;23.02;7.88;;;;;;;0.45;77.82;101352.19;5030949;28;20068;-65
2022/01/07 00:42:46;;;;;;;14.70;6.63;;;;;;;0.32;76.98;101355.66;5030835;28;20053;-65
2022/01/07 00:45:12;;;;;;;17.08;7.43;;;;;;;0.25;77.91;101353.94;5030229;28;20127;-65
2022/01/07 00:47:39;;;;;;;20.60;7.72;;;;;;;-0.02;79.84;101347.91;5030502;28;20054;-65
2022/01/07 00:50:08;;;;;;;20.90;7.10;;;;;;;-0.14;80.64;101350.44;5030709;28;20068;-65
2022/01/07 00:52:36;;;;;;;10.65;6.55;;;;;;;0.25;79.20;101343.63;5030922;28;20042;-65
2022/01/07 00:55:03;;;;;;;26.52;7.82;;;;;;;0.04;79.58;101341.03;5031085;28;20115;-65
2022/01/07 00:57:30;;;;;;;19.00;7.65;;;;;;;-0.10;80.05;101344.44;5030995;28;20172;-65
2022/01/07 00:59:56;;;;;;;21.27;6.95;;;;;;;0.13;79.46;101336.75;5029549;28;20046;-65
2022/01/07 01:02:23;;;;;;;15.13;6.90;;;;;;;0.26;78.52;101325.53;5028290;28;20045;-65
2022/01/07 01:04:49;;;;;;;21.20;8.07;;;;;;;0.05;78.82;101322.13;5030072;28;20065;-65
2022/01/07 01:07:16;;;;;;;24.42;9.02;;;;;;;0.16;78.48;101335.88;5029489;28;20103;-65
2022/01/07 01:09:44;;;;;;;20.95;7.50;;;;;;;0.04;79.35;101331.56;5030855;28;20073;-65
2022/01/07 01:12:12;;;;;;;20.42;6.95;;;;;;;-0.02;79.54;101337.59;5031263;28;20041;-65
2022/01/07 01:14:38;;;;;;;25.17;7.28;;;;;;;0.15;79.17;101335.00;5031037;28;20099;-65
2022/01/07 01:17:05;;;;;;;14.52;7.70;;;;;;;0.23;78.42;101343.59;5028097;28;22242;-65
2022/01/07 01:19:31;;;;;;;19.55;6.10;;;;;;;0.24;78.59;101350.50;5028435;28;20049;-65
2022/01/07 01:21:57;;;;;;;19.80;6.80;;;;;;;0.28;77.98;101344.47;5030888;28;20127;-65
2022/01/07 01:24:24;;;;;;;15.73;6.72;;;;;;;0.35;78.13;101345.31;5029117;28;20045;-65
2022/01/07 01:26:52;;;;;;;20.15;6.53;;;;;;;0.15;78.92;101349.66;5027838;28;20648;-65
2022/01/07 01:29:20;;;;;;;22.13;7.20;;;;;;;0.22;78.94;101347.03;5027764;28;20049;-65
2022/01/07 01:31:47;;;;;;;11.90;5.95;;;;;;;0.34;78.26;101335.84;5027154;28;20099;-65
2022/01/07 01:34:13;;;;;;;14.90;6.22;;;;;;;0.30;77.79;101331.56;5027312;28;20091;-65
2022/01/07 01:36:40;;;;;;;13.02;5.60;;;;;;;0.73;76.42;101338.41;5027555;28;20053;-65
2022/01/07 01:39:07;;;;;;;13.68;5.47;;;;;;;0.48;77.23;101336.75;5028256;28;20069;-65
2022/01/07 01:41:34;;;;;;;18.75;6.65;;;;;;;0.13;78.66;101347.06;5027820;28;20482;-65
2022/01/07 01:44:01;;;;;;;15.60;5.78;;;;;;;-0.01;79.37;101334.16;5027393;28;20065;-65
2022/01/07 01:46:28;;;;;;;11.35;5.97;;;;;;;0.11;78.58;101328.13;5027742;28;20099;-65
2022/01/07 01:48:54;;;;;;;16.92;5.88;;;;;;;0.06;78.88;101326.41;5026877;28;20049;-65
2022/01/07 01:51:21;;;;;;;17.63;6.40;;;;;;;0.38;77.07;101317.81;5027245;28;20045;-65
2022/01/07 01:53:47;;;;;;;22.63;5.90;;;;;;;0.46;76.05;101305.75;5027896;28;20126;-65
2022/01/07 01:56:14;;;;;;;15.32;6.60;;;;;;;0.46;75.88;101303.19;5038599;28;20045;-65
2022/01/07 01:58:40;;;;;;;14.05;5.78;;;;;;;0.67;75.33;101288.50;5044889;28;20088;-65
2022/01/07 02:01:08;;;;;;;11.98;5.95;;;;;;;0.76;74.34;101289.34;5027326;28;20045;-65
2022/01/07 02:03:34;;;;;;;19.50;7.07;;;;;;;0.68;74.03;101285.94;5026692;28;20045;-65
2022/01/07 02:06:01;;;;;;;11.80;6.45;;;;;;;0.69;74.03;101284.22;5026371;28;22081;-65
2022/01/07 02:08:29;;;;;;;19.58;6.93;;;;;;;0.50;74.22;101283.41;5019842;28;20041;-65
2022/01/07 02:10:57;;;;;;;20.45;6.47;;;;;;;0.42;75.78;101287.72;5008118;28;20050;-65
2022/01/07 02:13:24;;;;;;;11.02;7.13;;;;;;;0.48;76.07;101274.81;5027574;28;20050;-65
2022/01/07 02:15:50;;;;;;;20.30;7.55;;;;;;;0.69;75.48;101281.63;5027161;28;20095;-65
2022/01/07 02:18:18;;;;;;;16.83;6.88;;;;;;;0.43;76.21;101271.38;5026744;28;20115;-65
2022/01/07 02:20:47;;;;;;;12.70;6.82;;;;;;;0.33;76.93;101274.84;5027059;28;20490;-65
2022/01/07 02:23:16;;;;;;;17.73;8.30;;;;;;;0.14;78.23;101268.84;5026891;28;20156;-65
2022/01/07 02:25:42;;;;;;;19.55;6.57;;;;;;;0.06;78.02;101260.25;5018092;28;20056;-65
2022/01/07 02:28:10;;;;;;;20.27;6.68;;;;;;;0.28;77.16;101266.25;5020366;28;20041;-65
2022/01/07 02:30:36;;;;;;;23.55;7.40;;;;;;;0.35;78.08;101252.47;5025774;28;20053;-65
2022/01/07 02:33:03;;;;;;;15.05;7.45;;;;;;;0.26;78.56;101252.50;5026157;28;20476;-65
2022/01/07 02:35:31;;;;;;;16.23;6.97;;;;;;;0.07;77.37;101258.53;5025874;28;20484;-65
2022/01/07 02:38:00;;;;;;;14.95;7.50;;;;;;;0.10;78.10;101254.22;5025973;28;20482;-65
2022/01/07 02:40:27;;;;;;;18.85;8.10;;;;;;;-0.02;78.98;101242.22;5020644;28;20042;-65
2022/01/07 02:42:54;;;;;;;16.70;7.75;;;;;;;0.06;78.04;101246.50;5017688;28;20045;-65
2022/01/07 02:45:20;;;;;;;18.75;9.10;;;;;;;-0.22;79.08;101233.59;5026768;28;20099;-65
2022/01/07 02:47:52;;;;;;;21.02;9.07;;;;;;;-0.18;79.47;101231.88;5026712;28;20752;-65
2022/01/07 02:50:19;;;;;;;17.08;7.63;;;;;;;-0.10;79.51;101227.59;5027540;28;20137;-65
2022/01/07 02:52:46;;;;;;;46.25;42.97;;;;;;;-0.71;82.12;101225.00;5026438;28;20042;-65
2022/01/07 02:55:14;;;;;;;25.33;8.32;;;;;;;-0.28;81.06;101217.28;5026164;28;20123;-65
2022/01/07 02:57:40;;;;;;;20.27;8.02;;;;;;;-0.11;79.90;101211.25;5025714;28;20069;-65
2022/01/07 03:00:08;;;;;;;28.17;9.77;;;;;;;0.12;79.53;101213.81;5023051;28;20134;-65
2022/01/07 03:02:35;;;;;;;20.50;9.50;;;;;;;-0.18;80.58;101214.72;5025732;28;20049;-65
2022/01/07 03:05:01;;;;;;;21.02;7.60;;;;;;;-0.11;80.45;101208.69;5026652;28;20157;-65
2022/01/07 03:07:29;;;;;;;25.95;20.25;;;;;;;-0.25;81.34;101206.97;5026218;28;20049;-65
2022/01/07 03:09:56;;;;;;;25.67;7.45;;;;;;;-0.27;82.00;101201.84;5028873;28;20045;-65
2022/01/07 03:12:24;;;;;;;22.48;7.93;;;;;;;-0.09;81.34;101194.09;5025318;28;20096;-65
2022/01/07 03:14:50;;;;;;;32.92;10.20;;;;;;;-0.10;81.83;101199.25;5039958;28;20040;-65
2022/01/07 03:17:17;;;;;;;26.15;23.95;;;;;;;-0.39;82.48;101190.66;5037605;28;20045;-65
2022/01/07 03:19:44;;;;;;;22.35;8.75;;;;;;;-0.20;82.60;101184.66;5046040;28;20501;-65
2022/01/07 03:22:10;;;;;;;24.10;7.88;;;;;;;-0.15;82.22;101182.94;5029544;28;20080;-65
2022/01/07 03:24:38;;;;;;;28.95;10.10;;;;;;;-0.22;82.54;101168.34;5026415;28;20073;-65
2022/01/07 03:27:05;;;;;;;28.23;9.50;;;;;;;0.12;81.54;101164.84;5025913;28;20051;-65
2022/01/07 03:29:32;;;;;;;28.15;10.35;;;;;;;0.27;81.22;101164.78;5027025;28;20099;-65
2022/01/07 03:31:59;;;;;;;27.25;9.13;;;;;;;0.00;82.58;101157.97;5028056;28;20046;-65
2022/01/07 03:34:25;;;;;;;38.13;33.97;;;;;;;-0.04;82.53;101153.69;5023001;28;20045;-65
2022/01/07 03:36:52;;;;;;;34.78;17.60;;;;;;;0.11;82.37;101159.69;5020647;28;20099;-65
2022/01/07 03:39:18;;;;;;;28.17;9.50;;;;;;;0.58;81.01;101149.19;5028099;28;20473;-65
2022/01/07 03:41:45;;;;;;;28.27;18.20;;;;;;;0.43;81.23;101142.38;5028064;28;20123;-65
2022/01/07 03:44:12;;;;;;;29.70;16.38;;;;;;;0.28;82.21;101145.88;5028295;28;20386;-65
2022/01/07 03:46:40;;;;;;;26.77;13.63;;;;;;;0.43;81.71;101138.09;5027969;28;20505;-65
2022/01/07 03:49:06;;;;;;;33.05;9.02;;;;;;;0.62;81.36;101141.44;5028205;28;20053;-65
2022/01/07 03:51:32;;;;;;;16.92;12.05;;;;;;;0.65;81.24;101128.53;5028107;28;20054;-65
2022/01/07 03:53:59;;;;;;;29.95;18.77;;;;;;;0.56;81.77;101128.56;5028177;28;20078;-65
2022/01/07 03:56:25;;;;;;;29.10;9.60;;;;;;;0.62;81.59;101115.63;5028370;28;20469;-65
2022/01/07 03:58:51;;;;;;;22.17;9.40;;;;;;;0.73;81.11;101128.50;5028012;28;20574;-65
2022/01/07 04:01:18;;;;;;;21.00;12.90;;;;;;;0.65;81.12;101125.94;5019078;28;20045;-65
2022/01/07 04:03:45;;;;;;;22.48;9.73;;;;;;;0.83;80.49;101120.69;5027820;28;20049;-65
2022/01/07 04:06:15;;;;;;;17.60;8.55;;;;;;;1.05;79.44;101117.94;5027123;28;20106;-65
2022/01/07 04:08:41;;;;;;;33.42;10.45;;;;;;;0.80;80.14;101115.53;5034896;28;20119;-65
2022/01/07 04:11:07;;;;;;;24.35;9.18;;;;;;;0.71;80.95;101106.97;5029581;28;20460;-65
2022/01/07 04:13:34;;;;;;;21.15;9.55;;;;;;;0.44;82.11;101100.25;5028070;28;20468;-65
2022/01/07 04:16:00;;;;;;;28.52;20.92;;;;;;;0.28;82.89;101106.34;5028209;28;20123;-65
2022/01/07 04:18:26;;;;;;;27.83;20.88;;;;;;;0.24;83.10;101099.47;5028511;28;20053;-65
2022/01/07 04:20:54;;;;;;;24.77;9.68;;;;;;;0.20;83.16;101097.75;5031625;28;20050;-65
2022/01/07 04:23:21;;;;;;;30.25;11.95;;;;;;;0.07;83.73;101104.69;5031338;28;20041;-65
2022/01/07 04:25:47;;;;;;;25.15;14.45;;;;;;;0.15;83.46;101102.09;5027059;28;20107;-65
2022/01/07 04:28:13;;;;;;;30.30;9.30;;;;;;;0.37;82.82;101098.56;5032862;28;20100;-66
2022/01/07 04:30:43;;;;;;;23.92;9.55;;;;;;;0.64;81.52;101089.81;5036732;28;20586;-65
2022/01/07 04:33:13;;;;;;;31.55;26.10;;;;;;;0.54;81.45;101083.84;5031617;28;20041;-65
2022/01/07 04:35:41;;;;;;;88.97;82.25;;;;;;;0.51;81.18;101085.59;5030768;28;20049;-65
2022/01/07 04:38:09;;;;;;;32.25;28.30;;;;;;;0.62;81.15;101079.50;5031083;28;20042;-65
2022/01/07 04:40:36;;;;;;;24.85;8.85;;;;;;;0.77;80.48;101069.09;5030902;28;20111;-65
2022/01/07 04:43:04;;;;;;;25.40;15.23;;;;;;;0.62;81.23;101074.34;5025119;28;20068;-64
2022/01/07 04:45:31;;;;;;;68.45;62.88;;;;;;;0.49;81.44;101078.72;5031156;28;20054;-65
2022/01/07 04:47:58;;;;;;;73.68;66.45;;;;;;;0.63;80.86;101064.91;5030271;28;20072;-65
2022/01/07 04:50:24;;;;;;;23.75;8.57;;;;;;;0.50;81.71;101058.94;5031165;28;20049;-65
2022/01/07 04:52:51;;;;;;;21.52;11.95;;;;;;;0.58;81.22;101059.75;5029792;28;20050;-65
2022/01/07 04:55:22;;;;;;;26.55;9.48;;;;;;;0.72;81.07;101055.34;5040327;28;20167;-65
2022/01/07 04:57:49;;;;;;;16.52;9.10;;;;;;;0.52;81.39;101046.03;5046743;28;20048;-65
2022/01/07 05:00:17;;;;;;;24.85;7.90;;;;;;;0.54;81.41;101045.16;5026705;28;20045;-65
2022/01/07 05:02:44;;;;;;;25.45;22.48;;;;;;;0.35;82.06;101049.56;5029059;28;20057;-65
2022/01/07 05:05:11;;;;;;;35.08;30.98;;;;;;;0.58;81.00;101035.66;5030806;28;20505;-65
2022/01/07 05:07:37;;;;;;;23.60;14.10;;;;;;;0.67;81.21;101026.13;5029894;28;20104;-65
2022/01/07 05:10:06;;;;;;;23.30;13.80;;;;;;;0.64;80.92;101031.31;5026109;28;20073;-65
2022/01/07 05:12:33;;;;;;;18.45;8.07;;;;;;;0.51;81.07;101021.97;5030828;28;20045;-65
2022/01/07 05:15:00;;;;;;;19.77;8.73;;;;;;;0.67;80.67;101020.97;5029828;28;20064;-65
2022/01/07 05:17:26;;;;;;;28.77;22.15;;;;;;;0.51;81.44;101023.69;5029164;28;20459;-65
2022/01/07 05:19:53;;;;;;;16.73;9.93;;;;;;;0.70;80.94;101014.94;5031074;28;20053;-65
2022/01/07 05:22:19;;;;;;;29.50;10.52;;;;;;;0.88;79.99;101014.81;5030775;28;20049;-65
2022/01/07 05:24:45;;;;;;;22.52;10.32;;;;;;;0.76;80.30;101013.19;5030705;28;20049;-65
2022/01/07 05:27:12;;;;;;;29.00;12.82;;;;;;;0.65;80.51;101012.41;5030556;28;20487;-65
2022/01/07 05:29:40;;;;;;;26.70;16.45;;;;;;;0.67;80.83;101010.66;5030171;28;20053;-65
2022/01/07 05:32:07;;;;;;;14.63;11.52;;;;;;;0.66;80.83;101006.38;5030491;28;20045;-65
2022/01/07 05:34:34;;;;;;;45.50;41.53;;;;;;;0.37;82.21;100997.97;5027183;28;20050;-65
2022/01/07 05:37:01;;;;;;;22.38;15.50;;;;;;;0.41;81.62;101002.22;5030145;28;20551;-65
2022/01/07 05:39:28;;;;;;;32.20;20.80;;;;;;;0.44;81.95;101000.47;5030028;28;20046;-65
2022/01/07 05:41:54;;;;;;;23.83;8.65;;;;;;;0.53;81.42;100994.41;5030197;28;20431;-65
2022/01/07 05:44:21;;;;;;;48.75;37.67;;;;;;;0.68;80.55;100991.72;5030045;28;20065;-65
2022/01/07 05:46:49;;;;;;;30.35;22.02;;;;;;;0.57;80.87;100978.03;5029883;28;20057;-65
2022/01/07 05:49:15;;;;;;;25.38;16.75;;;;;;;0.69;80.23;100980.53;5030154;28;20049;-65
2022/01/07 05:51:42;;;;;;;17.25;9.68;;;;;;;0.77;80.01;100971.03;5030655;28;20567;-65
2022/01/07 05:54:09;;;;;;;47.40;43.28;;;;;;;0.65;80.62;100976.28;5029887;28;20042;-65
2022/01/07 05:56:35;;;;;;;32.67;22.55;;;;;;;0.67;80.21;100966.78;5029736;28;20422;-65
2022/01/07 05:59:01;;;;;;;15.25;8.57;;;;;;;0.78;79.99;100966.69;5029916;28;20046;-65
2022/01/07 06:01:28;;;;;;;23.52;13.00;;;;;;;0.86;79.92;100975.22;5029817;28;20049;-65
2022/01/07 06:03:55;;;;;;;25.25;12.48;;;;;;;0.77;79.64;100967.59;5029422;28;20041;-65
2022/01/07 06:06:22;;;;;;;26.95;18.33;;;;;;;0.68;80.05;100980.53;5029525;28;20421;-65
2022/01/07 06:08:48;;;;;;;19.35;7.28;;;;;;;0.66;80.26;100967.66;5029370;28;20057;-65
2022/01/07 06:11:14;;;;;;;20.30;18.35;;;;;;;0.81;79.34;100966.69;5027069;28;20076;-65
2022/01/07 06:13:41;;;;;;;29.35;26.08;;;;;;;0.98;78.79;100968.25;5029769;28;20119;-65
2022/01/07 06:16:08;;;;;;;19.25;8.82;;;;;;;0.94;78.94;100956.22;5029732;28;20041;-65
2022/01/07 06:18:35;;;;;;;19.50;8.88;;;;;;;0.88;78.80;100961.47;5029406;28;20094;-65
2022/01/07 06:21:02;;;;;;;12.80;7.18;;;;;;;0.93;78.77;100957.09;5029866;28;20408;-65
2022/01/07 06:23:29;;;;;;;23.90;9.25;;;;;;;0.93;78.96;100962.25;5031294;28;20551;-65
2022/01/07 06:25:55;;;;;;;19.98;17.92;;;;;;;0.84;79.35;100957.19;5049132;28;20045;-65
2022/01/07 06:28:22;;;;;;;51.90;47.10;;;;;;;0.68;79.96;100958.19;5038298;28;20045;-65
2022/01/07 06:30:48;;;;;;;36.00;32.72;;;;;;;0.75;79.34;100953.81;5029291;28;20490;-65
2022/01/07 06:33:14;;;;;;;27.45;7.82;;;;;;;0.82;79.29;100953.75;5028882;28;20072;-65
2022/01/07 06:35:41;;;;;;;21.92;14.00;;;;;;;0.72;79.20;100956.44;5029656;28;20049;-65
2022/01/07 06:38:09;;;;;;;28.17;9.15;;;;;;;0.71;79.29;100955.56;5028907;28;20426;-65
2022/01/07 06:40:35;;;;;;;22.52;15.63;;;;;;;0.76;79.17;100952.94;5027239;28;20047;-65
2022/01/07 06:43:02;;;;;;;21.23;12.20;;;;;;;0.73;79.21;100964.16;5028494;28;20065;-65
2022/01/07 06:45:28;;;;;;;18.30;9.73;;;;;;;0.79;78.85;100960.66;5029057;28;20068;-65
2022/01/07 06:47:54;;;;;;;31.27;21.02;;;;;;;0.67;79.51;100953.88;5028925;28;20107;-65
2022/01/07 06:50:21;;;;;;;43.60;39.35;;;;;;;0.78;79.00;100956.38;5029013;28;20067;-65
2022/01/07 06:52:47;;;;;;;23.00;15.35;;;;;;;0.80;78.91;100958.09;5027832;28;20049;-65
2022/01/07 06:55:15;;;;;;;19.52;10.05;;;;;;;0.80;78.89;100957.22;5028910;28;20049;-65
2022/01/07 06:57:41;;;;;;;25.33;12.15;;;;;;;0.80;78.86;100950.34;5028989;28;20045;-65
2022/01/07 07:00:09;;;;;;;34.58;19.77;;;;;;;0.94;78.20;100951.06;5028831;28;20050;-65
2022/01/07 07:02:35;;;;;;;25.30;21.77;;;;;;;0.72;79.50;100946.09;5027335;28;20095;-65
2022/01/07 07:05:01;;;;;;;20.98;11.57;;;;;;;0.69;79.57;100941.84;5025801;28;20049;-65
2022/01/07 07:07:28;;;;;;;72.57;66.15;;;;;;;0.69;79.96;100936.66;5024708;28;20045;-65
2022/01/07 07:09:54;;;;;;;23.23;7.55;;;;;;;0.88;79.42;100940.81;5025770;28;20102;-65
2022/01/07 07:12:22;;;;;;;21.17;17.23;;;;;;;0.86;79.44;100939.09;5026204;28;20053;-65
2022/01/07 07:14:48;;;;;;;20.77;8.73;;;;;;;0.91;79.79;100935.63;5026338;28;20107;-65
2022/01/07 07:17:14;;;;;;;34.55;21.25;;;;;;;0.87;79.93;100939.09;5026791;28;20041;-65
2022/01/07 07:19:41;;;;;;;32.65;29.98;;;;;;;0.77;80.19;100942.63;5010722;28;20049;-65
2022/01/07 07:22:07;;;;;;;50.83;46.00;;;;;;;0.76;79.90;100938.31;5025997;28;20064;-65
2022/01/07 07:24:34;;;;;;;108.05;100.75;;;;;;;0.75;80.33;100933.16;5025875;28;20041;-64
2022/01/07 07:27:00;;;;;;;25.65;12.55;;;;;;;0.91;79.59;100932.16;5025209;28;20126;-65
2022/01/07 07:29:28;;;;;;;141.85;130.32;;;;;;;0.68;80.32;100934.09;5025364;28;20133;-65
2022/01/07 07:31:57;;;;;;;32.05;25.10;;;;;;;0.81;79.96;100922.81;5025472;28;20099;-65
2022/01/07 07:34:54;;;;;;;22.95;11.18;;;;;;;0.85;79.89;100927.91;5025041;28;20436;-65
2022/01/07 07:37:19;;;;;;;21.60;11.35;;;;;;;0.82;80.05;100930.53;5021632;28;20046;-65
2022/01/07 07:39:46;;;;;;;67.82;62.72;;;;;;;0.83;80.41;100924.50;5019457;28;20157;-65
2022/01/07 07:42:12;;;;;;;42.97;39.28;;;;;;;0.85;80.37;100922.75;5017571;28;20383;-65
2022/01/07 07:44:40;;;;;;;19.45;9.38;;;;;;;0.88;79.73;100920.16;5019819;28;20049;-65
2022/01/07 07:47:07;;;;;;;33.85;17.05;;;;;;;0.96;79.88;100920.09;5005654;28;20556;-65
2022/01/07 07:49:33;;;;;;;28.25;19.75;;;;;;;0.92;79.79;100919.22;5019826;28;20045;-65
2022/01/07 07:51:59;;;;;;;33.67;29.02;;;;;;;0.96;80.12;100920.09;5011592;28;20103;-65
2022/01/07 07:54:26;;;;;;;36.80;30.58;;;;;;;0.88;80.18;100911.56;5027828;28;20045;-65
2022/01/07 07:56:52;;;;;;;13.38;8.20;;;;;;;1.03;80.01;100911.41;5029498;28;20054;-65
2022/01/07 07:59:19;;;;;;;24.48;22.15;;;;;;;0.88;80.45;100911.56;5029809;28;20499;-65
2022/01/07 08:01:46;;;;;;;38.95;35.22;;;;;;;0.98;80.03;100895.09;5028871;28;20184;-65
2022/01/07 08:04:15;;;;;;;24.67;15.25;;;;;;;1.05;79.82;100898.47;5011031;28;20127;-65
2022/01/07 08:06:41;;;;;;;18.75;13.30;;;;;;;1.12;79.60;100895.81;5021507;28;20494;-66
2022/01/07 08:09:08;;;;;;;33.85;30.92;;;;;;;0.94;80.00;100904.59;5027134;28;20042;-65
2022/01/07 08:11:48;;;;;;;25.40;11.27;;;;;;;1.20;79.87;100906.06;5026223;28;20049;-65
2022/01/07 08:16:59;;;;;;;17.25;13.25;;;;;;;1.26;79.49;100900.81;5029116;28;20053;-65
2022/01/07 08:19:26;;;;;;;72.72;66.22;;;;;;;1.32;79.37;100901.63;5029279;28;20041;-65
2022/01/07 08:21:52;;;;;;;20.15;14.10;;;;;;;1.23;79.99;100891.38;5029001;28;20123;-65
2022/01/07 08:24:19;;;;;;;24.85;15.02;;;;;;;1.28;79.55;100888.75;5029214;28;20493;-65
2022/01/07 08:26:45;;;;;;;23.08;13.02;;;;;;;1.10;79.98;100883.78;5028535;28;20135;-65
2022/01/07 08:29:13;;;;;;;52.05;47.45;;;;;;;1.07;80.74;100886.41;5030076;28;20076;-65
2022/01/07 08:37:09;;;;;;;55.72;50.22;;;;;;;1.15;80.35;100872.50;5028153;28;20153;-65
2022/01/07 08:39:35;;;;;;;50.70;46.50;;;;;;;1.26;79.73;100869.81;5028690;28;20054;-65
2022/01/07 08:42:01;;;;;;;21.42;8.68;;;;;;;1.38;80.03;100861.91;5026944;28;20072;-65
2022/01/07 08:44:28;;;;;;;18.83;7.80;;;;;;;1.63;79.05;100865.91;5029598;28;20111;-65
2022/01/07 08:46:54;;;;;;;27.77;24.23;;;;;;;1.56;79.55;100863.41;5022833;28;20497;-65
2022/01/07 08:49:21;;;;;;;98.40;88.00;;;;;;;1.60;78.37;100862.50;5027160;28;20045;-65
2022/01/07 08:51:48;;;;;;;20.30;9.95;;;;;;;1.39;79.80;100861.06;5012035;28;20054;-65
2022/01/07 08:54:15;;;;;;;29.55;26.80;;;;;;;1.28;80.61;100862.91;5029734;28;20095;-65
2022/01/07 08:56:41;;;;;;;21.83;14.45;;;;;;;1.34;80.42;100858.53;5029044;28;20588;-65
2022/01/07 08:59:07;;;;;;;23.65;15.90;;;;;;;1.36;80.66;100861.09;5023763;28;20100;-65
2022/01/07 09:01:34;;;;;;;13.40;10.38;;;;;;;1.43;80.85;100855.84;5026903;28;20120;-65
2022/01/07 09:04:01;;;;;;;72.22;64.88;;;;;;;1.33;80.84;100855.97;5027016;28;20045;-65
2022/01/07 09:06:27;;;;;;;24.20;15.85;;;;;;;1.43;81.32;100858.41;5025943;28;20049;-65
2022/01/07 09:08:55;;;;;;;28.02;11.73;;;;;;;1.55;81.19;100852.25;5012875;28;20042;-65
2022/01/07 09:11:21;;;;;;;24.95;10.60;;;;;;;1.52;81.50;100846.22;5024676;28;20623;-64
2022/01/07 09:13:51;;;;;;;37.65;31.00;;;;;;;1.45;81.38;100848.06;5027545;28;20179;-64
2022/01/07 09:16:18;;;;;;;35.53;27.70;;;;;;;1.67;80.81;100843.44;5025614;28;20064;-64
2022/01/07 09:18:44;;;;;;;30.33;14.85;;;;;;;1.57;80.73;100840.16;5027221;28;20100;-64
2022/01/07 09:21:11;;;;;;;18.20;8.52;;;;;;;1.53;81.59;100841.06;5027491;28;20076;-64
2022/01/07 09:23:40;;;;;;;17.52;10.60;;;;;;;1.56;81.57;100835.84;5023940;28;20107;-64
2022/01/07 09:26:08;;;;;;;21.33;10.07;;;;;;;1.93;79.58;100841.34;5027967;28;20489;-64
2022/01/07 09:28:35;;;;;;;22.63;20.48;;;;;;;1.74;80.63;100843.34;5026496;28;20038;-64
2022/01/07 09:31:01;;;;;;;27.35;12.52;;;;;;;2.10;79.33;100841.97;5028421;28;20076;-64
2022/01/07 09:33:27;;;;;;;31.02;9.82;;;;;;;2.17;79.27;100846.16;5027312;28;20045;-64
2022/01/07 09:35:53;;;;;;;18.73;13.80;;;;;;;2.16;78.58;100831.50;5028191;28;20042;-64
2022/01/07 09:38:21;;;;;;;21.17;12.00;;;;;;;2.33;78.05;100839.84;5027536;28;20053;-64
2022/01/07 09:40:48;;;;;;;19.48;9.38;;;;;;;2.28;77.93;100841.66;5026886;28;20088;-63
2022/01/07 09:43:15;;;;;;;16.50;9.60;;;;;;;2.18;78.49;100828.91;5028554;28;20421;-63
2022/01/07 09:45:42;;;;;;;20.10;18.13;;;;;;;2.08;78.52;100842.84;5028027;28;20059;-63
2022/01/07 09:48:09;;;;;;;20.58;11.50;;;;;;;2.03;78.84;100837.78;5026979;28;20104;-63
2022/01/07 09:50:37;;;;;;;24.33;12.20;;;;;;;2.01;78.78;100834.34;5027416;28;20087;-63
2022/01/07 09:53:05;;;;;;;13.43;9.32;;;;;;;2.24;78.15;100839.16;5027328;28;20111;-63
2022/01/07 09:55:32;;;;;;;20.95;10.77;;;;;;;2.17;78.86;100827.19;5029008;28;20559;-63
2022/01/07 09:57:58;;;;;;;20.73;12.20;;;;;;;2.30;78.27;100828.69;5027273;28;20049;-63
2022/01/07 10:00:33;;;;;;;17.08;8.15;;;;;;;2.34;78.02;100826.03;5026712;28;20574;-63
2022/01/07 10:03:02;;;;;;;26.88;24.67;;;;;;;2.44;78.15;100822.41;5027159;28;20053;-62
2022/01/07 10:05:30;;;;;;;22.70;12.20;;;;;;;2.55;77.03;100816.22;5027223;28;20521;-63
2022/01/07 10:07:57;;;;;;;13.93;9.30;;;;;;;2.37;78.51;100825.13;5026692;28;20049;-63
2022/01/07 10:10:23;;;;;;;26.13;23.83;;;;;;;2.06;79.30;100813.59;5027390;28;20163;-63
2022/01/07 10:12:53;;;;;;;12.82;8.00;;;;;;;2.23;79.12;100808.97;5027047;28;20417;-64
2022/01/07 10:15:21;;;;;;;62.92;57.58;;;;;;;2.13;79.78;100810.00;5027196;28;20068;-63
2022/01/07 10:17:57;;;;;;;15.73;14.15;;;;;;;2.18;79.57;100800.47;5025933;28;20042;-64
2022/01/07 10:20:26;;;;;;;17.52;13.52;;;;;;;2.21;79.86;100810.75;5026867;28;20076;-64
2022/01/07 10:22:54;;;;;;;26.27;23.65;;;;;;;2.18;79.77;100806.47;5026779;28;20633;-64
2022/01/07 10:25:23;;;;;;;23.33;17.83;;;;;;;2.15;80.09;100805.66;5023511;28;20049;-64
2022/01/07 10:27:50;;;;;;;34.97;31.83;;;;;;;2.17;80.31;100809.09;5026529;28;20053;-64
2022/01/07 10:30:18;;;;;;;14.80;10.02;;;;;;;2.20;79.87;100815.06;5027033;28;20046;-64
2022/01/07 10:32:46;;;;;;;27.60;21.50;;;;;;;2.22;79.91;100808.13;5028208;28;20068;-64
2022/01/07 10:35:15;;;;;;;22.05;11.70;;;;;;;2.17;80.29;100801.31;5027701;28;20045;-64
2022/01/07 10:37:51;;;;;;;31.55;28.17;;;;;;;2.18;79.68;100810.81;5027484;28;20049;-64
2022/01/07 10:40:30;;;;;;;15.55;8.63;;;;;;;2.35;79.43;100806.19;5026692;28;20041;-64
2022/01/07 10:43:08;;;;;;;22.20;8.73;;;;;;;2.33;79.79;100802.75;5027168;28;20049;-64
2022/01/07 10:45:34;;;;;;;39.95;36.33;;;;;;;2.17;80.72;100809.94;5012014;28;20050;-64
2022/01/07 10:48:01;;;;;;;17.25;11.48;;;;;;;2.24;81.09;100803.78;5007251;28;20146;-63
2022/01/07 10:50:29;;;;;;;21.80;9.30;;;;;;;2.12;81.92;100806.56;5009686;28;20534;-63
2022/01/07 10:53:15;;;;;;;25.00;14.77;;;;;;;2.01;83.12;100798.13;5017736;28;20068;-63
2022/01/07 10:55:58;;;;;;;21.67;19.60;;;;;;;1.97;83.85;100786.13;5024995;28;20049;-64
2022/01/07 10:58:25;;;;;;;24.83;22.20;;;;;;;2.03;83.88;100780.88;5038079;28;20095;-64
2022/01/07 11:00:51;;;;;;;19.10;11.90;;;;;;;2.15;83.67;100782.38;5022632;28;20072;-63
2022/01/07 11:03:17;;;;;;;32.03;24.20;;;;;;;1.86;85.13;100778.53;5026513;28;20130;-64
2022/01/07 11:05:46;;;;;;;23.38;15.52;;;;;;;1.90;85.55;100782.78;5029024;28;20046;-64
2022/01/07 11:08:15;;;;;;;18.70;11.98;;;;;;;1.81;86.11;100788.09;5026242;28;20131;-64
2022/01/07 11:10:42;;;;;;;22.33;16.75;;;;;;;2.04;85.73;100773.94;5027160;28;20053;-64
2022/01/07 11:13:09;;;;;;;25.90;12.57;;;;;;;1.92;86.30;100786.19;5028091;28;20045;-64
2022/01/07 11:15:36;;;;;;;26.67;17.90;;;;;;;1.84;86.93;100769.97;5027340;28;20414;-64
2022/01/07 11:18:03;;;;;;;33.58;24.35;;;;;;;2.06;85.83;100777.38;5028490;28;20210;-64
2022/01/07 11:20:30;;;;;;;24.02;14.43;;;;;;;2.10;86.16;100773.84;5028399;28;20049;-64
2022/01/07 11:22:58;;;;;;;27.35;12.98;;;;;;;1.99;86.16;100773.19;5028544;28;20064;-64
2022/01/07 11:25:32;;;;;;;24.77;14.77;;;;;;;2.18;85.58;100775.41;5028471;28;20049;-64
2022/01/07 11:27:59;;;;;;;51.00;29.35;;;;;;;1.70;87.24;100771.06;5028599;28;20167;-64